Time,TemperatureF,DewpointF,PressureIn,WindDirection,WindDirectionDegrees,WindSpeedMPH,WindSpeedGustMPH,Humidity,HourlyPrecipIn,Conditions,Clouds,dailyrainin,SoftwareType,DateUTC
2017-10-17 00:07:00,39.6,37.0,30.29,North,355,0.0,2.0,91,0.00,,,0.00,weatherlink.com 1.10,2017-10-17 04:07:00,
2017-10-17 00:23:00,39.4,37.0,30.29,North,355,0.0,2.0,92,0.00,,,0.00,weatherlink.com 1.10,2017-10-17 04:23:00,
2017-10-17 00:37:00,39.2,37.0,30.29,North,355,1.0,3.0,92,0.00,,,0.00,weatherlink.com 1.10,2017-10-17 04:37:00,
2017-10-17 00:53:00,39.0,37.0,30.29,North,355,0.0,0.0,92,0.00,,,0.00,weatherlink.com 1.10,2017-10-17 04:53:00,
2017-10-17 01:09:00,38.7,37.0,30.28,North,355,0.0,1.0,92,0.00,,,0.00,weatherlink.com 1.10,2017-10-17 05:09:00,
2017-10-17 01:23:00,38.5,37.0,30.28,North,355,1.0,2.0,93,0.00,,,0.00,weatherlink.com 1.10,2017-10-17 05:23:00,
2017-10-17 01:38:00,38.5,37.0,30.29,North,355,1.0,2.0,93,0.00,,,0.00,weatherlink.com 1.10,2017-10-17 05:38:00,
2017-10-17 01:54:00,38.4,37.0,30.29,North,355,1.0,2.0,93,0.00,,,0.00,weatherlink.com 1.10,2017-10-17 05:54:00,
2017-10-17 02:08:00,38.3,37.0,30.29,North,355,0.0,3.0,93,0.00,,,0.00,weatherlink.com 1.10,2017-10-17 06:08:00,
2017-10-17 02:24:00,38.0,36.0,30.29,North,355,0.0,1.0,93,0.00,,,0.00,weatherlink.com 1.10,2017-10-17 06:24:00,
2017-10-17 02:38:00,37.6,36.0,30.29,North,355,0.0,0.0,93,0.00,,,0.00,weatherlink.com 1.10,2017-10-17 06:38:00,
2017-10-17 02:54:00,37.3,36.0,30.29,North,355,0.0,0.0,93,0.00,,,0.00,weatherlink.com 1.10,2017-10-17 06:54:00,
2017-10-17 03:08:00,37.2,36.0,30.30,North,355,0.0,0.0,94,0.00,,,0.00,weatherlink.com 1.10,2017-10-17 07:08:00,
2017-10-17 03:24:00,37.1,36.0,30.30,North,355,0.0,0.0,94,0.00,,,0.00,weatherlink.com 1.10,2017-10-17 07:24:00,
2017-10-17 03:40:00,36.9,35.0,30.30,North,355,0.0,0.0,93,0.00,,,0.00,weatherlink.com 1.10,2017-10-17 07:40:00,
2017-10-17 03:54:00,36.8,35.0,30.29,North,355,0.0,0.0,94,0.00,,,0.00,weatherlink.com 1.10,2017-10-17 07:54:00,
2017-10-17 04:09:00,36.9,35.0,30.30,North,355,0.0,0.0,94,0.00,,,0.00,weatherlink.com 1.10,2017-10-17 08:09:00,
2017-10-17 04:23:00,36.8,35.0,30.30,North,355,0.0,0.0,94,0.00,,,0.00,weatherlink.com 1.10,2017-10-17 08:23:00,
2017-10-17 04:39:00,36.6,35.0,30.30,North,355,0.0,0.0,94,0.00,,,0.00,weatherlink.com 1.10,2017-10-17 08:39:00,
2017-10-17 04:55:00,36.5,35.0,30.30,North,355,0.0,2.0,94,0.00,,,0.00,weatherlink.com 1.10,2017-10-17 08:55:00,
2017-10-17 05:09:00,36.5,35.0,30.31,North,355,0.0,2.0,94,0.00,,,0.00,weatherlink.com 1.10,2017-10-17 09:09:00,
2017-10-17 05:25:00,36.3,35.0,30.32,North,355,0.0,0.0,94,0.00,,,0.00,weatherlink.com 1.10,2017-10-17 09:25:00,
2017-10-17 05:39:00,36.1,35.0,30.32,North,355,1.0,2.0,94,0.00,,,0.00,weatherlink.com 1.10,2017-10-17 09:39:00,
2017-10-17 05:55:00,36.2,35.0,30.32,North,355,0.0,1.0,94,0.00,,,0.00,weatherlink.com 1.10,2017-10-17 09:55:00,
2017-10-17 06:10:00,36.1,35.0,30.32,North,355,1.0,1.0,94,0.00,,,0.00,weatherlink.com 1.10,2017-10-17 10:10:00,
2017-10-17 06:25:00,36.1,35.0,30.33,North,355,0.0,1.0,94,0.00,,,0.00,weatherlink.com 1.10,2017-10-17 10:25:00,
2017-10-17 06:40:00,36.2,35.0,30.33,North,355,2.0,2.0,95,0.00,,,0.00,weatherlink.com 1.10,2017-10-17 10:40:00,
2017-10-17 06:55:00,36.3,35.0,30.33,North,355,0.0,1.0,95,0.00,,,0.00,weatherlink.com 1.10,2017-10-17 10:55:00,
2017-10-17 07:11:00,36.0,35.0,30.34,North,355,0.0,1.0,94,0.00,,,0.00,weatherlink.com 1.10,2017-10-17 11:11:00,
2017-10-17 07:25:00,35.8,35.0,30.34,North,355,0.0,0.0,95,0.00,,,0.00,weatherlink.com 1.10,2017-10-17 11:25:00,
2017-10-17 07:41:00,35.6,34.0,30.34,North,355,0.0,0.0,95,0.00,,,0.00,weatherlink.com 1.10,2017-10-17 11:41:00,
2017-10-17 07:55:00,35.6,34.0,30.34,North,355,0.0,0.0,95,0.00,,,0.00,weatherlink.com 1.10,2017-10-17 11:55:00,
2017-10-17 08:11:00,35.4,34.0,30.34,North,355,0.0,0.0,95,0.00,,,0.00,weatherlink.com 1.10,2017-10-17 12:11:00,
2017-10-17 08:25:00,35.8,35.0,30.34,North,355,0.0,0.0,95,0.00,,,0.00,weatherlink.com 1.10,2017-10-17 12:25:00,
2017-10-17 08:41:00,37.8,37.0,30.35,North,355,0.0,0.0,96,0.00,,,0.00,weatherlink.com 1.10,2017-10-17 12:41:00,
2017-10-17 08:55:00,40.8,40.0,30.36,North,355,0.0,0.0,96,0.00,,,0.00,weatherlink.com 1.10,2017-10-17 12:55:00,
2017-10-17 09:10:00,43.2,42.0,30.36,North,355,0.0,0.0,97,0.00,,,0.00,weatherlink.com 1.10,2017-10-17 13:10:00,
2017-10-17 09:26:00,44.6,44.0,30.36,SSW,205,4.0,7.0,96,0.00,,,0.00,weatherlink.com 1.10,2017-10-17 13:26:00,
2017-10-17 09:40:00,45.2,44.0,30.36,SW,225,2.0,8.0,96,0.00,,,0.00,weatherlink.com 1.10,2017-10-17 13:40:00,
2017-10-17 09:56:00,48.0,46.0,30.35,SSW,196,4.0,7.0,93,0.00,,,0.00,weatherlink.com 1.10,2017-10-17 13:56:00,
2017-10-17 10:12:00,50.9,45.0,30.35,SW,236,4.0,9.0,80,0.00,,,0.00,weatherlink.com 1.10,2017-10-17 14:12:00,
2017-10-17 10:26:00,52.8,44.0,30.36,SW,221,4.0,8.0,71,0.00,,,0.00,weatherlink.com 1.10,2017-10-17 14:26:00,
2017-10-17 10:42:00,54.4,44.0,30.36,South,182,3.0,8.0,67,0.00,,,0.00,weatherlink.com 1.10,2017-10-17 14:42:00,
2017-10-17 10:57:00,56.1,44.0,30.35,WSW,240,5.0,10.0,64,0.00,,,0.00,weatherlink.com 1.10,2017-10-17 14:57:00,
2017-10-17 11:11:00,57.0,44.0,30.35,SW,227,7.0,10.0,63,0.00,,,0.00,weatherlink.com 1.10,2017-10-17 15:11:00,
2017-10-17 11:27:00,58.1,44.0,30.34,South,178,8.0,11.0,59,0.00,,,0.00,weatherlink.com 1.10,2017-10-17 15:27:00,
2017-10-17 11:41:00,58.3,43.0,30.34,WSW,246,4.0,11.0,57,0.00,,,0.00,weatherlink.com 1.10,2017-10-17 15:41:00,
2017-10-17 11:57:00,59.1,42.0,30.34,SW,233,7.0,12.0,54,0.00,,,0.00,weatherlink.com 1.10,2017-10-17 15:57:00,
2017-10-17 12:13:00,59.9,41.0,30.33,South,181,5.0,11.0,50,0.00,,,0.00,weatherlink.com 1.10,2017-10-17 16:13:00,
2017-10-17 12:27:00,60.6,42.0,30.33,South,186,4.0,15.0,50,0.00,,,0.00,weatherlink.com 1.10,2017-10-17 16:27:00,
2017-10-17 12:43:00,61.5,41.0,30.32,SW,221,5.0,10.0,48,0.00,,,0.00,weatherlink.com 1.10,2017-10-17 16:43:00,
2017-10-17 12:57:00,61.8,43.0,30.32,SSW,213,9.0,10.0,51,0.00,,,0.00,weatherlink.com 1.10,2017-10-17 16:57:00,
2017-10-17 13:12:00,62.4,44.0,30.31,SSW,202,6.0,10.0,51,0.00,,,0.00,weatherlink.com 1.10,2017-10-17 17:12:00,
2017-10-17 13:28:00,63.2,42.0,30.30,South,180,5.0,9.0,47,0.00,,,0.00,weatherlink.com 1.10,2017-10-17 17:28:00,
2017-10-17 13:43:00,63.8,43.0,30.30,SSW,213,7.0,10.0,47,0.00,,,0.00,weatherlink.com 1.10,2017-10-17 17:43:00,
2017-10-17 13:57:00,63.3,41.0,30.29,SSE,151,8.0,13.0,45,0.00,,,0.00,weatherlink.com 1.10,2017-10-17 17:57:00,
2017-10-17 14:13:00,63.7,43.0,30.28,SSW,213,3.0,11.0,47,0.00,,,0.00,weatherlink.com 1.10,2017-10-17 18:13:00,
2017-10-17 14:29:00,64.8,42.0,30.27,SSW,200,2.0,14.0,44,0.00,,,0.00,weatherlink.com 1.10,2017-10-17 18:29:00,
2017-10-17 14:43:00,65.1,42.0,30.26,South,174,2.0,9.0,44,0.00,,,0.00,weatherlink.com 1.10,2017-10-17 18:43:00,
2017-10-17 14:59:00,64.8,41.0,30.26,SSW,209,7.0,13.0,42,0.00,,,0.00,weatherlink.com 1.10,2017-10-17 18:59:00,
2017-10-17 15:13:00,65.1,41.0,30.25,South,185,6.0,10.0,42,0.00,,,0.00,weatherlink.com 1.10,2017-10-17 19:13:00,
2017-10-17 15:28:00,65.5,43.0,30.25,SW,223,4.0,8.0,45,0.00,,,0.00,weatherlink.com 1.10,2017-10-17 19:28:00,
2017-10-17 15:45:00,65.3,42.0,30.25,South,188,5.0,11.0,43,0.00,,,0.00,weatherlink.com 1.10,2017-10-17 19:45:00,
2017-10-17 15:58:00,65.7,41.0,30.25,SW,236,7.0,9.0,41,0.00,,,0.00,weatherlink.com 1.10,2017-10-17 19:58:00,
2017-10-17 16:14:00,65.9,41.0,30.24,WSW,253,3.0,9.0,40,0.00,,,0.00,weatherlink.com 1.10,2017-10-17 20:14:00,
2017-10-17 16:29:00,65.9,41.0,30.24,SW,217,3.0,9.0,40,0.00,,,0.00,weatherlink.com 1.10,2017-10-17 20:29:00,
2017-10-17 16:44:00,66.2,42.0,30.24,South,174,5.0,8.0,42,0.00,,,0.00,weatherlink.com 1.10,2017-10-17 20:44:00,
2017-10-17 16:59:00,66.0,41.0,30.23,SSW,207,6.0,7.0,41,0.00,,,0.00,weatherlink.com 1.10,2017-10-17 20:59:00,
2017-10-17 17:13:00,65.3,41.0,30.23,South,183,5.0,10.0,42,0.00,,,0.00,weatherlink.com 1.10,2017-10-17 21:13:00,
2017-10-17 17:29:00,64.9,41.0,30.23,West,264,3.0,8.0,42,0.00,,,0.00,weatherlink.com 1.10,2017-10-17 21:29:00,
2017-10-17 17:44:00,65.1,41.0,30.23,SW,223,4.0,7.0,42,0.00,,,0.00,weatherlink.com 1.10,2017-10-17 21:44:00,
2017-10-17 17:59:00,64.7,42.0,30.23,SW,220,4.0,8.0,43,0.00,,,0.00,weatherlink.com 1.10,2017-10-17 21:59:00,
2017-10-17 18:14:00,63.6,42.0,30.23,SW,220,1.0,4.0,45,0.00,,,0.00,weatherlink.com 1.10,2017-10-17 22:14:00,
2017-10-17 18:30:00,62.6,42.0,30.23,SW,234,1.0,5.0,47,0.00,,,0.00,weatherlink.com 1.10,2017-10-17 22:30:00,
2017-10-17 18:45:00,60.9,42.0,30.23,SSW,210,1.0,3.0,51,0.00,,,0.00,weatherlink.com 1.10,2017-10-17 22:45:00,
2017-10-17 18:59:00,58.8,43.0,30.23,SSW,210,1.0,2.0,56,0.00,,,0.00,weatherlink.com 1.10,2017-10-17 22:59:00,
2017-10-17 19:15:00,56.8,44.0,30.23,SSW,210,2.0,2.0,62,0.00,,,0.00,weatherlink.com 1.10,2017-10-17 23:15:00,
2017-10-17 19:31:00,54.5,44.0,30.23,SSW,210,1.0,2.0,69,0.00,,,0.00,weatherlink.com 1.10,2017-10-17 23:31:00,
2017-10-17 19:44:00,53.2,44.0,30.23,SSW,210,2.0,2.0,71,0.00,,,0.00,weatherlink.com 1.10,2017-10-17 23:44:00,
2017-10-17 20:00:00,51.9,43.0,30.24,SSW,207,2.0,3.0,73,0.00,,,0.00,weatherlink.com 1.10,2017-10-18 00:00:00,
2017-10-17 20:16:00,50.5,43.0,30.24,SSW,207,2.0,3.0,76,0.00,,,0.00,weatherlink.com 1.10,2017-10-18 00:16:00,
2017-10-17 20:30:00,49.6,43.0,30.24,SSW,205,2.0,3.0,78,0.00,,,0.00,weatherlink.com 1.10,2017-10-18 00:30:00,
2017-10-17 20:45:00,48.7,43.0,30.24,SSW,205,2.0,3.0,80,0.00,,,0.00,weatherlink.com 1.10,2017-10-18 00:45:00,
2017-10-17 20:59:00,48.1,43.0,30.24,SSW,205,1.0,3.0,81,0.00,,,0.00,weatherlink.com 1.10,2017-10-18 00:59:00,